HEMM 020500Z 27007KT CAVOK 29/20 Q1016 NOSIG
From batch tds/metars/production/2022/10/2/h05_m24_metars.cache.csv.gz
Observed at (about 2 hours ago)
Identifier HEMM
HEMM 020400Z 26007KT CAVOK 24/20 Q1016 NOSIG
From batch tds/metars/production/2022/10/2/h04_m25_metars.cache.csv.gz
Observed at (about 3 hours ago)
Identifier HEMM
HEMM 020300Z 25007KT CAVOK 24/20 Q1016 NOSIG
From batch tds/metars/production/2022/10/2/h03_m55_metars.cache.csv.gz
Observed at (about 4 hours ago)
Identifier HEMM
HEMM 020100Z 26005KT CAVOK 25/21 Q1016 NOSIG
From batch tds/metars/production/2022/10/2/h01_m29_metars.cache.csv.gz
Observed at (about 6 hours ago)
Identifier HEMM
HEMM 020000Z 26006KT CAVOK 25/21 Q1016 NOSIG
From batch tds/metars/production/2022/10/2/h00_m21_metars.cache.csv.gz
Observed at (about 7 hours ago)
Identifier HEMM
HEMM 012300Z 25006KT CAVOK 25/22 Q1017 NOSIG
From batch tds/metars/production/2022/10/1/h23_m23_metars.cache.csv.gz
Observed at (about 8 hours ago)
Identifier HEMM
HEMM 012200Z 26006KT CAVOK 25/23 Q1018 NOSIG
From batch tds/metars/production/2022/10/1/h22_m22_metars.cache.csv.gz
Observed at (about 9 hours ago)
Identifier HEMM
HEMM 012100Z 26005KT CAVOK 27/22 Q1018 NOSIG
From batch tds/metars/production/2022/10/1/h21_m29_metars.cache.csv.gz
Observed at (about 10 hours ago)
Identifier HEMM
HEMM 012000Z 30006KT CAVOK 26/22 Q1018 NOSIG
From batch tds/metars/production/2022/10/1/h20_m27_metars.cache.csv.gz
Observed at (about 11 hours ago)
Identifier HEMM
HEMM 011900Z 29006KT CAVOK 27/23 Q1018 NOSIG
From batch tds/metars/production/2022/10/1/h19_m51_metars.cache.csv.gz
Observed at (about 12 hours ago)
Identifier HEMM
HEMM 011800Z 28005KT CAVOK 28/23 Q1018 NOSIG
From batch tds/metars/production/2022/10/1/h18_m51_metars.cache.csv.gz
Observed at (about 13 hours ago)
Identifier HEMM
HEMM 011700Z 30012KT CAVOK 27/22 Q1018 NOSIG
From batch tds/metars/production/2022/10/1/h17_m24_metars.cache.csv.gz
Observed at (about 14 hours ago)
Identifier HEMM
HEMM 011600Z 32010KT CAVOK 28/23 Q1018 NOSIG
From batch tds/metars/production/2022/10/1/h16_m29_metars.cache.csv.gz
Observed at (about 15 hours ago)
Identifier HEMM
HEMM 011500Z 31010KT CAVOK 29/23 Q1018 NOSIG
From batch tds/metars/production/2022/10/1/h15_m59_metars.cache.csv.gz
Observed at (about 16 hours ago)
Identifier HEMM
HEMM 011400Z 32010KT CAVOK 30/22 Q1018 NOSIG
From batch tds/metars/production/2022/10/1/h14_m22_metars.cache.csv.gz
Observed at (about 17 hours ago)
Identifier HEMM
HEMM 011300Z 33010KT CAVOK 31/24 Q1018 NOSIG
From batch tds/metars/production/2022/10/1/h13_m52_metars.cache.csv.gz
Observed at (about 18 hours ago)
Identifier HEMM
HEMM 011000Z 01005KT CAVOK 33/19 Q1019 NOSIG
From batch tds/metars/production/2022/10/1/h10_m25_metars.cache.csv.gz
Observed at (about 21 hours ago)
Identifier HEMM
HEMM 010800Z 10007KT CAVOK 33/18 Q1019 NOSIG
From batch tds/metars/production/2022/10/1/h08_m29_metars.cache.csv.gz
Observed at (about 23 hours ago)
Identifier HEMM
HEMM 010700Z 10007KT CAVOK 31/18 Q1019 NOSIG
From batch tds/metars/production/2022/10/1/h07_m29_metars.cache.csv.gz
Observed at (about 24 hours ago)
Identifier HEMM
HEMM 010600Z 10004KT CAVOK 27/22 Q1019 NOSIG
From batch tds/metars/production/2022/10/1/h06_m55_metars.cache.csv.gz
Observed at (1 day ago)
Identifier HEMM
HEMM 010400Z 13003KT CAVOK 22/19 Q1019 NOSIG
From batch tds/metars/production/2022/10/1/h04_m47_metars.cache.csv.gz
Observed at (1 day ago)
Identifier HEMM
HEMM 010300Z 00000KT CAVOK 23/20 Q1018 NOSIG
From batch tds/metars/production/2022/10/1/h03_m52_metars.cache.csv.gz
Observed at (1 day ago)
Identifier HEMM
HEMM 010200Z 10003KT CAVOK 24/23 Q1018 NOSIG
From batch tds/metars/production/2022/10/1/h02_m24_metars.cache.csv.gz
Observed at (1 day ago)
Identifier HEMM
HEMM 302200Z 11004KT CAVOK 26/23 Q1018 NOSIG
From batch tds/metars/production/2022/9/30/h22_m28_metars.cache.csv.gz
Observed at (1 day ago)
Identifier HEMM
HEMM 302000Z 08005KT CAVOK 28/23 Q1018 NOSIG
From batch tds/metars/production/2022/9/30/h20_m24_metars.cache.csv.gz
Observed at (1 day ago)
Identifier HEMM
HEMM 301900Z 09007KT CAVOK 28/21 Q1018 NOSIG
From batch tds/metars/production/2022/9/30/h19_m27_metars.cache.csv.gz
Observed at (1 day ago)
Identifier HEMM
HEMM 301800Z 08007KT CAVOK 29/20 Q1017 NOSIG
From batch tds/metars/production/2022/9/30/h18_m54_metars.cache.csv.gz
Observed at (1 day ago)
Identifier HEMM
HEMM 301700Z 08008KT CAVOK 30/19 Q1016 NOSIG
From batch tds/metars/production/2022/9/30/h17_m49_metars.cache.csv.gz
Observed at (1 day ago)
Identifier HEMM
HEMM 301600Z 08007KT CAVOK 32/17 Q1016 NOSIG
From batch tds/metars/production/2022/9/30/h16_m52_metars.cache.csv.gz
Observed at (1 day ago)
Identifier HEMM
HEMM 301500Z 07009KT CAVOK 34/17 Q1015 NOSIG
From batch tds/metars/production/2022/9/30/h15_m24_metars.cache.csv.gz
Observed at (1 day ago)
Identifier HEMM
HEMM 301400Z 05011KT CAVOK 36/15 Q1015 NOSIG
From batch tds/metars/production/2022/9/30/h14_m27_metars.cache.csv.gz
Observed at (1 day ago)
Identifier HEMM
HEMM 301300Z 05011KT CAVOK 36/16 Q1015 NOSIG
From batch tds/metars/production/2022/9/30/h13_m59_metars.cache.csv.gz
Observed at (1 day ago)
Identifier HEMM
HEMM 301200Z 07011KT CAVOK 38/16 Q1015 NOSIG
From batch tds/metars/production/2022/9/30/h12_m59_metars.cache.csv.gz
Observed at (2 days ago)
Identifier HEMM
HEMM 301100Z 07010KT CAVOK 38/13 Q1015 NOSIG
From batch tds/metars/production/2022/9/30/h11_m59_metars.cache.csv.gz
Observed at (2 days ago)
Identifier HEMM
HEMM 301000Z 09008KT CAVOK 38/13 Q1015 NOSIG
From batch tds/metars/production/2022/9/30/h10_m20_metars.cache.csv.gz
Observed at (2 days ago)
Identifier HEMM
HEMM 300800Z 11015KT CAVOK 35/12 Q1016 NOSIG
From batch tds/metars/production/2022/9/30/h08_m21_metars.cache.csv.gz
Observed at (2 days ago)
Identifier HEMM
HEMM 300700Z 11013KT CAVOK 32/13 Q1015 NOSIG
From batch tds/metars/production/2022/9/30/h07_m29_metars.cache.csv.gz
Observed at (2 days ago)
Identifier HEMM
HEMM 300600Z 11008KT CAVOK 29/15 Q1015 NOSIG
From batch tds/metars/production/2022/9/30/h06_m59_metars.cache.csv.gz
Observed at (2 days ago)
Identifier HEMM
HEMM 300500Z 12006KT CAVOK 26/16 Q1014 NOSIG
From batch tds/metars/production/2022/9/30/h05_m23_metars.cache.csv.gz
Observed at (2 days ago)
Identifier HEMM
HEMM 300400Z 06006KT CAVOK 25/17 Q1014 NOSIG
From batch tds/metars/production/2022/9/30/h04_m50_metars.cache.csv.gz
Observed at (2 days ago)
Identifier HEMM
HEMM 300300Z 10007KT CAVOK 25/19 Q1013 NOSIG
From batch tds/metars/production/2022/9/30/h03_m59_metars.cache.csv.gz
Observed at (2 days ago)
Identifier HEMM
HEMM 300200Z 12010KT CAVOK 26/22 Q1013 NOSIG
From batch tds/metars/production/2022/9/30/h02_m29_metars.cache.csv.gz
Observed at (2 days ago)
Identifier HEMM
HEMM 300100Z 10012KT CAVOK 27/22 Q1013 NOSIG
From batch tds/metars/production/2022/9/30/h01_m27_metars.cache.csv.gz
Observed at (2 days ago)
Identifier HEMM
HEMM 292300Z 10011KT CAVOK 27/24 Q1013
From batch tds/metars/production/2022/9/29/h23_m29_metars.cache.csv.gz
Observed at (2 days ago)
Identifier HEMM
HEMM 292100Z 09011KT CAVOK 27/24 Q1013 NOSIG
From batch tds/metars/production/2022/9/29/h21_m51_metars.cache.csv.gz
Observed at (2 days ago)
Identifier HEMM
HEMM 292000Z 09013KT CAVOK 28/23 Q1013 NOSIG
From batch tds/metars/production/2022/9/29/h20_m23_metars.cache.csv.gz
Observed at (2 days ago)
Identifier HEMM
HEMM 291900Z 08013KT CAVOK 29/22 Q1013 NOSIG
From batch tds/metars/production/2022/9/29/h19_m59_metars.cache.csv.gz
Observed at (2 days ago)
Identifier HEMM
HEMM 291700Z 07010KT CAVOK 30/21 Q1012 NOSIG
From batch tds/metars/production/2022/9/29/h17_m22_metars.cache.csv.gz
Observed at (3 days ago)
Identifier HEMM
HEMM 291600Z 06010KT CAVOK 31/21 Q1011 NOSIG
From batch tds/metars/production/2022/9/29/h16_m24_metars.cache.csv.gz
Observed at (3 days ago)
Identifier HEMM
HEMM 291500Z 06010KT CAVOK 33/19 Q1011 NOSIG
From batch tds/metars/production/2022/9/29/h15_m29_metars.cache.csv.gz
Observed at (3 days ago)
Identifier HEMM
talk